Time;durP1;ratioP1;P1;durP2;ratioP2;P2;SDS_P1;SDS_P2;PMS_P1;PMS_P2;Temp;Humidity;BMP_temperature;BMP_pressure;BME280_temperature;BME280_humidity;BME280_pressure;Samples;Min_cycle;Max_cycle;Signal;HPM_P1;HPM_P2
2021/05/07 00:14:49;;;;;;;4.53;3.97;;;;;;;;;;5985754;22;20459;-96
2021/05/07 00:38:25;;;;;;;4.53;4.13;;;;;;;;;;5747496;22;20487;-96
2021/05/07 00:46:27;;;;;;;4.30;4.00;;;;;;;;;;5794678;22;20490;-96
2021/05/07 00:51:30;;;;;;;6.17;3.70;;;;;;;;;;5794032;22;20473;-96
2021/05/07 00:56:43;;;;;;;4.87;3.80;;;;;;;;;;5625364;23;20467;-96
2021/05/07 01:13:10;;;;;;;7.30;6.30;;;;;;;;;;5833212;22;20560;-96
2021/05/07 01:35:19;;;;;;;5.30;4.80;;;;;;;;;;5004183;28;21098;-96
2021/05/07 01:38:00;;;;;;;5.37;4.87;;;;;;;;;;5012741;28;20439;-96
2021/05/07 01:40:27;;;;;;;8.17;5.30;;;;;;;;;;5004020;28;20504;-96
2021/05/07 01:42:54;;;;;;;5.20;4.70;;;;;;;;;;5008850;28;20463;-95
2021/05/07 01:45:21;;;;;;;6.20;4.53;;;;;;;;;;5000156;28;20455;-95
2021/05/07 01:47:47;;;;;;;5.97;4.10;;;;;;;;;;4964359;29;20429;-96
2021/05/07 01:50:18;;;;;;;5.03;4.07;;;;;;;;;;5002614;28;20456;-96
2021/05/07 01:52:47;;;;;;;5.63;4.50;;;;;;;;;;5012031;28;20487;-96
2021/05/07 01:55:14;;;;;;;4.17;3.77;;;;;;;;;;5009585;28;20471;-96
2021/05/07 01:57:48;;;;;;;6.73;4.57;;;;;;;;;;5013518;28;20484;-96
2021/05/07 02:00:16;;;;;;;6.57;4.90;;;;;;;;;;5011451;28;20525;-96
2021/05/07 02:02:43;;;;;;;4.87;4.10;;;;;;;;;;4999487;28;20469;-96
2021/05/07 02:05:10;;;;;;;6.00;5.23;;;;;;;;;;5008312;28;20474;-96
2021/05/07 02:07:36;;;;;;;5.73;4.53;;;;;;;;;;5005861;28;20474;-96
2021/05/07 02:10:07;;;;;;;5.77;4.67;;;;;;;;;;5003703;28;20464;-96
2021/05/07 02:12:33;;;;;;;5.53;4.23;;;;;;;;;;5005255;28;20539;-95
2021/05/07 02:14:59;;;;;;;4.43;4.13;;;;;;;;;;5009507;28;20446;-96
2021/05/07 02:17:26;;;;;;;5.53;4.60;;;;;;;;;;5009755;28;20471;-96
2021/05/07 02:19:52;;;;;;;5.07;4.17;;;;;;;;;;5007992;28;20475;-96
2021/05/07 02:22:18;;;;;;;5.20;4.70;;;;;;;;;;5007611;28;20482;-96
2021/05/07 02:24:44;;;;;;;4.63;4.20;;;;;;;;;;5005735;28;20466;-96
2021/05/07 02:27:11;;;;;;;7.20;5.00;;;;;;;;;;5005298;28;20587;-96
2021/05/07 02:29:38;;;;;;;7.33;5.43;;;;;;;;;;5004499;28;20447;-96
2021/05/07 02:32:07;;;;;;;5.93;4.23;;;;;;;;;;5012523;28;20449;-96
2021/05/07 02:34:33;;;;;;;6.90;5.00;;;;;;;;;;4991268;28;20598;-96
2021/05/07 02:37:00;;;;;;;4.50;4.10;;;;;;;;;;5008469;28;20459;-96
2021/05/07 02:39:26;;;;;;;5.27;4.27;;;;;;;;;;4999129;28;20474;-96
2021/05/07 02:41:52;;;;;;;5.40;4.63;;;;;;;;;;5000922;28;21043;-96
2021/05/07 02:44:19;;;;;;;4.80;4.40;;;;;;;;;;5000106;28;20472;-96
2021/05/07 02:46:45;;;;;;;7.60;4.60;;;;;;;;;;5008143;28;20464;-96
2021/05/07 02:49:12;;;;;;;7.40;4.73;;;;;;;;;;5005916;28;20454;-96
2021/05/07 02:51:38;;;;;;;5.93;4.07;;;;;;;;;;5003905;28;20459;-96
2021/05/07 02:54:04;;;;;;;5.30;4.80;;;;;;;;;;5005363;28;20526;-96
2021/05/07 02:56:30;;;;;;;4.87;4.40;;;;;;;;;;5004988;28;20467;-95
2021/05/07 02:58:56;;;;;;;5.73;5.10;;;;;;;;;;5004226;28;20466;-96
2021/05/07 03:01:24;;;;;;;5.03;4.60;;;;;;;;;;5010026;28;20530;-96
2021/05/07 03:03:50;;;;;;;6.77;5.50;;;;;;;;;;5008002;28;20527;-96
2021/05/07 03:06:16;;;;;;;10.07;5.60;;;;;;;;;;5011840;28;20531;-96
2021/05/07 03:08:43;;;;;;;6.10;5.50;;;;;;;;;;5002193;28;20475;-96
2021/05/07 03:11:11;;;;;;;6.30;5.77;;;;;;;;;;5022235;28;20445;-96
2021/05/07 03:18:47;;;;;;;6.20;5.03;;;;;;;;;;5011046;28;20490;-96
2021/05/07 03:27:36;;;;;;;10.17;5.70;;;;;;;;;;5795907;22;20493;-96
2021/05/07 03:30:03;;;;;;;8.23;6.83;;;;;;;;;;5051779;28;20449;-96
2021/05/07 03:32:29;;;;;;;7.30;6.17;;;;;;;;;;5051649;28;20977;-96
2021/05/07 03:34:56;;;;;;;13.00;6.23;;;;;;;;;;5048300;28;20552;-96
2021/05/07 03:37:22;;;;;;;8.10;7.30;;;;;;;;;;5051788;28;20457;-96
2021/05/07 03:39:48;;;;;;;8.20;7.23;;;;;;;;;;5050882;28;20533;-96
2021/05/07 03:42:15;;;;;;;8.97;7.27;;;;;;;;;;5046478;28;20465;-96
2021/05/07 03:44:41;;;;;;;7.80;7.00;;;;;;;;;;5057722;28;20463;-96
2021/05/07 03:47:07;;;;;;;10.30;6.93;;;;;;;;;;5048002;28;20448;-96
2021/05/07 03:49:33;;;;;;;8.00;7.20;;;;;;;;;;5045091;28;20471;-96
2021/05/07 03:52:01;;;;;;;10.20;6.60;;;;;;;;;;5042989;28;20947;-96
2021/05/07 03:54:28;;;;;;;6.97;5.70;;;;;;;;;;5043134;28;20497;-96
2021/05/07 03:56:57;;;;;;;7.30;6.60;;;;;;;;;;5043168;28;20456;-96
2021/05/07 03:59:23;;;;;;;7.90;6.33;;;;;;;;;;5047978;28;20461;-96
2021/05/07 04:01:52;;;;;;;6.00;5.50;;;;;;;;;;5042399;28;20503;-96
2021/05/07 04:04:27;;;;;;;10.30;7.10;;;;;;;;;;5043420;28;20532;-96
2021/05/07 04:06:54;;;;;;;9.07;7.67;;;;;;;;;;5042267;28;20478;-96
2021/05/07 04:09:29;;;;;;;17.10;7.90;;;;;;;;;;5050386;28;20486;-96
2021/05/07 04:12:13;;;;;;;15.70;7.30;;;;;;;;;;5051308;28;20449;-96
2021/05/07 04:20:50;;;;;;;9.50;6.23;;;;;;;;;;5050745;28;20464;-96
2021/05/07 04:23:16;;;;;;;8.50;7.50;;;;;;;;;;5046427;28;20472;-96
2021/05/07 04:25:43;;;;;;;9.13;6.90;;;;;;;;;;5049488;28;20462;-96
2021/05/07 04:28:19;;;;;;;11.90;7.17;;;;;;;;;;5047529;28;20454;-96
2021/05/07 04:30:46;;;;;;;10.90;7.47;;;;;;;;;;5049474;28;20446;-96
2021/05/07 04:33:13;;;;;;;13.30;7.57;;;;;;;;;;5046656;28;20489;-96
2021/05/07 04:35:41;;;;;;;8.60;7.80;;;;;;;;;;5049570;28;20449;-96
2021/05/07 04:38:07;;;;;;;9.37;7.20;;;;;;;;;;5044115;28;20463;-96
2021/05/07 04:40:34;;;;;;;15.37;9.20;;;;;;;;;;5043870;28;20454;-96
2021/05/07 04:43:02;;;;;;;8.27;6.60;;;;;;;;;;5052045;28;20471;-96
2021/05/07 04:45:34;;;;;;;9.50;8.00;;;;;;;;;;5052811;28;20438;-96
2021/05/07 04:48:04;;;;;;;10.50;7.40;;;;;;;;;;5049877;28;20509;-96
2021/05/07 04:50:30;;;;;;;8.50;7.60;;;;;;;;;;5050585;28;20475;-96
2021/05/07 04:52:56;;;;;;;9.53;6.50;;;;;;;;;;5045441;28;20502;-96
2021/05/07 04:55:22;;;;;;;8.23;7.03;;;;;;;;;;5047972;28;20446;-96
2021/05/07 04:57:53;;;;;;;10.13;7.10;;;;;;;;;;5041775;28;20459;-96
2021/05/07 05:27:51;;;;;;;14.30;6.20;;;;;;;;;;5814386;22;20446;-95
2021/05/07 05:33:21;;;;;;;8.13;6.10;;;;;;;;;;5052657;28;20511;-96
2021/05/07 05:35:53;;;;;;;7.00;6.40;;;;;;;;;;5090258;22;21571;-96
2021/05/07 05:38:19;;;;;;;7.10;6.40;;;;;;;;;;5303612;22;20501;-96
2021/05/07 05:43:22;;;;;;;7.23;6.50;;;;;;;;;;5040498;22;20501;-96
2021/05/07 05:45:49;;;;;;;12.60;6.80;;;;;;;;;;5048330;28;20443;-96
2021/05/07 05:48:17;;;;;;;9.30;6.40;;;;;;;;;;5049409;28;20449;-96
2021/05/07 05:50:45;;;;;;;7.23;6.60;;;;;;;;;;5046548;28;20510;-96
2021/05/07 05:55:48;;;;;;;7.93;7.13;;;;;;;;;;5190938;22;20489;-96
2021/05/07 05:58:22;;;;;;;12.63;7.60;;;;;;;;;;5143987;22;20549;-96
2021/05/07 06:00:50;;;;;;;12.57;7.53;;;;;;;;;;5066722;23;20576;-96
2021/05/07 06:03:36;;;;;;;9.10;7.77;;;;;;;;;;5085911;22;20508;-96
2021/05/07 06:06:02;;;;;;;11.50;7.47;;;;;;;;;;5006631;28;20456;-96
2021/05/07 06:08:35;;;;;;;9.00;6.90;;;;;;;;;;5013430;28;20449;-96
2021/05/07 06:11:01;;;;;;;8.43;6.87;;;;;;;;;;5011272;28;20445;-96
2021/05/07 06:13:28;;;;;;;7.80;7.00;;;;;;;;;;5005848;28;20504;-96
2021/05/07 06:16:18;;;;;;;7.73;6.40;;;;;;;;;;5007900;28;20533;-96
2021/05/07 06:18:45;;;;;;;9.70;6.80;;;;;;;;;;5046987;22;20913;-94
2021/05/07 06:21:11;;;;;;;8.13;6.20;;;;;;;;;;5025732;28;20455;-96
2021/05/07 06:23:38;;;;;;;6.73;5.90;;;;;;;;;;5026793;28;20944;-95
2021/05/07 06:26:04;;;;;;;6.60;6.00;;;;;;;;;;5026710;28;20436;-94
2021/05/07 06:28:30;;;;;;;6.93;6.23;;;;;;;;;;5024320;28;20459;-96
2021/05/07 06:30:58;;;;;;;7.03;6.00;;;;;;;;;;5026735;28;21120;-95
2021/05/07 06:33:25;;;;;;;6.30;5.70;;;;;;;;;;5026925;28;21034;-96
2021/05/07 06:41:37;;;;;;;7.37;6.03;;;;;;;;;;5014001;28;20494;-96
2021/05/07 06:49:56;;;;;;;6.93;6.23;;;;;;;;;;5089505;23;20510;-96
2021/05/07 06:54:58;;;;;;;8.47;6.87;;;;;;;;;;5561694;23;21264;-96
2021/05/07 07:09:02;;;;;;;7.27;5.63;;;;;;;;;;5114360;22;20503;-96
2021/05/07 07:13:58;;;;;;;5.77;5.20;;;;;;;;;;5039428;28;20509;-96
2021/05/07 07:19:12;;;;;;;7.50;6.10;;;;;;;;;;5046227;28;20435;-96
2021/05/07 07:21:38;;;;;;;9.20;5.30;;;;;;;;;;5044823;28;20464;-96
2021/05/07 07:24:36;;;;;;;8.33;5.73;;;;;;;;;;5095837;22;20499;-96
2021/05/07 07:27:04;;;;;;;12.17;8.40;;;;;;;;;;5056281;28;20553;-96
2021/05/07 07:29:30;;;;;;;6.13;5.53;;;;;;;;;;5050855;28;20456;-96
2021/05/07 07:32:06;;;;;;;8.33;5.90;;;;;;;;;;5125599;23;20515;-96
2021/05/07 07:45:33;;;;;;;7.97;5.43;;;;;;;;;;5034758;28;20498;-95
2021/05/07 07:50:59;;;;;;;5.83;5.30;;;;;;;;;;5009219;28;20472;-96
2021/05/07 07:53:27;;;;;;;6.50;4.90;;;;;;;;;;5004616;28;20483;-95
2021/05/07 07:55:53;;;;;;;5.30;4.80;;;;;;;;;;5007877;28;20432;-96
2021/05/07 07:58:20;;;;;;;5.17;4.67;;;;;;;;;;5009060;28;20464;-96
2021/05/07 08:00:46;;;;;;;6.43;5.57;;;;;;;;;;5012757;28;20453;-96
2021/05/07 08:03:14;;;;;;;5.40;4.90;;;;;;;;;;5005905;28;21011;-96
2021/05/07 08:21:51;;;;;;;5.60;5.10;;;;;;;;;;4152261;22;20492;-96
2021/05/07 08:24:18;;;;;;;7.00;5.90;;;;;;;;;;5043691;28;20455;-96
2021/05/07 08:26:44;;;;;;;8.17;6.10;;;;;;;;;;5047764;28;20485;-96
2021/05/07 08:29:10;;;;;;;7.40;5.47;;;;;;;;;;5043509;28;20455;-96
2021/05/07 08:31:36;;;;;;;9.00;5.57;;;;;;;;;;5045249;28;20490;-96
2021/05/07 08:34:02;;;;;;;6.30;3.93;;;;;;;;;;5134952;22;20550;-96
2021/05/07 08:36:55;;;;;;;5.57;3.50;;;;;;;;;;5108552;23;20503;-96
2021/05/07 08:45:38;;;;;;;3.73;3.13;;;;;;;;;;5131417;22;20474;-96
2021/05/07 08:48:57;;;;;;;4.57;3.13;;;;;;;;;;5068986;23;20516;-96
2021/05/07 08:54:12;;;;;;;7.10;3.00;;;;;;;;;;5064433;23;20500;-95
2021/05/07 08:56:40;;;;;;;6.30;3.40;;;;;;;;;;5120607;22;20513;-96
2021/05/07 08:59:13;;;;;;;5.17;3.13;;;;;;;;;;5050218;28;20457;-96
2021/05/07 09:01:46;;;;;;;5.03;3.07;;;;;;;;;;5057960;28;20453;-96
2021/05/07 09:14:34;;;;;;;4.07;2.77;;;;;;;;;;5183039;23;20493;-96
2021/05/07 09:17:06;;;;;;;3.17;2.87;;;;;;;;;;5077223;28;20430;-96
2021/05/07 09:33:39;;;;;;;2.83;2.57;;;;;;;;;;5075099;28;20573;-95
2021/05/07 09:52:00;;;;;;;4.13;2.90;;;;;;;;;;4717930;26;20520;-96
2021/05/07 09:57:01;;;;;;;4.20;2.50;;;;;;;;;;5069328;22;20519;-96
2021/05/07 09:59:29;;;;;;;4.17;2.67;;;;;;;;;;5037741;28;20449;-96
2021/05/07 10:02:04;;;;;;;2.53;2.20;;;;;;;;;;5048856;28;20455;-94
2021/05/07 10:04:31;;;;;;;5.90;3.53;;;;;;;;;;5059627;28;20420;-96
2021/05/07 10:06:57;;;;;;;3.33;2.67;;;;;;;;;;5057832;28;20446;-96
2021/05/07 10:12:01;;;;;;;3.30;2.70;;;;;;;;;;4726467;26;20487;-95
2021/05/07 10:14:36;;;;;;;3.90;2.50;;;;;;;;;;5034159;28;20530;-96
2021/05/07 10:17:10;;;;;;;4.10;2.60;;;;;;;;;;5031012;28;20431;-95
2021/05/07 10:19:42;;;;;;;3.43;2.63;;;;;;;;;;5035499;28;20443;-94
2021/05/07 10:22:11;;;;;;;4.60;2.40;;;;;;;;;;5099432;22;20487;-96
2021/05/07 10:24:46;;;;;;;3.93;2.80;;;;;;;;;;5040507;28;20448;-95
2021/05/07 10:27:22;;;;;;;2.63;2.40;;;;;;;;;;5038625;28;20480;-96
2021/05/07 10:30:07;;;;;;;3.63;2.67;;;;;;;;;;5050381;28;20446;-96
2021/05/07 10:32:41;;;;;;;4.47;2.50;;;;;;;;;;5041116;28;20436;-96
2021/05/07 10:35:09;;;;;;;6.33;2.70;;;;;;;;;;4998093;28;20473;-96
2021/05/07 10:37:41;;;;;;;3.40;2.63;;;;;;;;;;5054371;22;20425;-96
2021/05/07 10:40:08;;;;;;;2.93;2.40;;;;;;;;;;5054282;28;20458;-96
2021/05/07 10:42:42;;;;;;;5.63;3.40;;;;;;;;;;5050810;28;20450;-95
2021/05/07 10:45:10;;;;;;;4.30;2.67;;;;;;;;;;5014641;28;20518;-95
2021/05/07 10:50:20;;;;;;;7.80;2.63;;;;;;;;;;5043993;28;20448;-96
2021/05/07 10:52:50;;;;;;;3.37;2.37;;;;;;;;;;5051392;28;20466;-96
2021/05/07 10:55:16;;;;;;;3.30;2.40;;;;;;;;;;5050617;28;20524;-96
2021/05/07 10:57:54;;;;;;;4.90;2.53;;;;;;;;;;5033157;28;20459;-96
2021/05/07 11:00:20;;;;;;;4.60;2.70;;;;;;;;;;5052389;28;20442;-95
2021/05/07 11:02:46;;;;;;;3.00;2.50;;;;;;;;;;5039407;23;20483;-93
2021/05/07 11:05:17;;;;;;;2.67;2.47;;;;;;;;;;5048359;28;20452;-96
2021/05/07 11:07:50;;;;;;;4.67;2.40;;;;;;;;;;5050417;28;20455;-95
2021/05/07 11:10:17;;;;;;;6.33;2.67;;;;;;;;;;5056210;22;20510;-96
2021/05/07 11:12:46;;;;;;;5.13;2.60;;;;;;;;;;5051757;28;20455;-96
2021/05/07 11:15:17;;;;;;;6.00;2.50;;;;;;;;;;5053195;28;20490;-95
2021/05/07 11:17:47;;;;;;;4.73;2.50;;;;;;;;;;5034760;28;20451;-95
2021/05/07 11:20:15;;;;;;;4.13;2.40;;;;;;;;;;5047160;28;20439;-96
2021/05/07 11:22:41;;;;;;;5.50;2.70;;;;;;;;;;5031716;28;20447;-93
2021/05/07 11:25:08;;;;;;;2.90;2.70;;;;;;;;;;5048981;28;20910;-95
2021/05/07 11:27:37;;;;;;;4.40;2.90;;;;;;;;;;5052023;28;20466;-96
2021/05/07 11:30:31;;;;;;;5.23;3.37;;;;;;;;;;5045748;28;20455;-95
2021/05/07 11:33:07;;;;;;;6.63;3.10;;;;;;;;;;5048717;28;20423;-96
2021/05/07 11:35:36;;;;;;;5.90;2.70;;;;;;;;;;5037857;28;20482;-96
2021/05/07 11:38:06;;;;;;;3.00;2.60;;;;;;;;;;5048941;28;20438;-96
2021/05/07 11:40:45;;;;;;;5.17;2.80;;;;;;;;;;5046249;28;20509;-96
2021/05/07 11:43:14;;;;;;;5.80;2.80;;;;;;;;;;5051096;28;20430;-96
2021/05/07 11:45:41;;;;;;;4.93;2.63;;;;;;;;;;5048830;28;20439;-95
2021/05/07 11:48:19;;;;;;;2.73;2.50;;;;;;;;;;5048552;28;20451;-95
2021/05/07 11:50:46;;;;;;;5.57;3.00;;;;;;;;;;5045895;28;20458;-96
2021/05/07 11:53:21;;;;;;;4.17;2.67;;;;;;;;;;5048578;28;20466;-96
2021/05/07 11:55:52;;;;;;;3.97;3.00;;;;;;;;;;5045508;28;20447;-96
2021/05/07 11:58:31;;;;;;;6.13;2.67;;;;;;;;;;5051374;28;20425;-96
2021/05/07 12:01:00;;;;;;;3.63;2.63;;;;;;;;;;5062087;23;20562;-96
2021/05/07 12:03:56;;;;;;;3.50;3.20;;;;;;;;;;5037648;28;20454;-96
2021/05/07 12:06:24;;;;;;;3.20;2.90;;;;;;;;;;5046992;28;21061;-96
2021/05/07 12:08:51;;;;;;;3.40;2.70;;;;;;;;;;5050729;28;20522;-96
2021/05/07 12:11:17;;;;;;;6.93;3.20;;;;;;;;;;5045675;28;20447;-95
2021/05/07 12:13:54;;;;;;;3.20;2.90;;;;;;;;;;5047219;28;20483;-95
2021/05/07 12:16:31;;;;;;;3.27;2.83;;;;;;;;;;5045768;28;20458;-96
2021/05/07 12:18:57;;;;;;;3.57;3.27;;;;;;;;;;5049503;28;20481;-94
2021/05/07 12:21:24;;;;;;;3.40;3.10;;;;;;;;;;5044846;28;20455;-96
2021/05/07 12:23:51;;;;;;;5.33;3.10;;;;;;;;;;5048197;28;20451;-94
2021/05/07 12:26:18;;;;;;;6.10;3.10;;;;;;;;;;5046746;28;20895;-95
2021/05/07 12:29:00;;;;;;;3.00;2.80;;;;;;;;;;5031629;28;20427;-95
2021/05/07 12:31:30;;;;;;;4.17;2.80;;;;;;;;;;5066860;23;20493;-94
2021/05/07 12:33:57;;;;;;;5.37;2.80;;;;;;;;;;5029298;28;20468;-95
2021/05/07 12:36:24;;;;;;;4.97;3.00;;;;;;;;;;5040176;28;20454;-95
2021/05/07 12:38:50;;;;;;;3.23;2.80;;;;;;;;;;5030380;28;20457;-96
2021/05/07 12:41:19;;;;;;;6.60;2.90;;;;;;;;;;5035759;28;20454;-95
2021/05/07 12:43:49;;;;;;;3.03;2.73;;;;;;;;;;5051711;28;20467;-95
2021/05/07 12:46:16;;;;;;;6.23;2.80;;;;;;;;;;5048547;28;20453;-93
2021/05/07 12:48:46;;;;;;;6.80;3.10;;;;;;;;;;5031824;28;20468;-96
2021/05/07 12:51:12;;;;;;;4.67;3.00;;;;;;;;;;5052482;28;20481;-96
2021/05/07 12:53:41;;;;;;;6.33;2.90;;;;;;;;;;5030958;28;20459;-94
2021/05/07 12:56:13;;;;;;;5.63;2.93;;;;;;;;;;5044522;28;20460;-96
2021/05/07 12:58:44;;;;;;;2.83;2.63;;;;;;;;;;5035057;28;20463;-95
2021/05/07 13:01:15;;;;;;;7.83;2.60;;;;;;;;;;5046703;28;20455;-95
2021/05/07 13:03:43;;;;;;;4.33;3.00;;;;;;;;;;5048559;28;20534;-96
2021/05/07 13:06:17;;;;;;;8.40;3.23;;;;;;;;;;5066966;28;20442;-95
2021/05/07 13:08:50;;;;;;;4.97;2.73;;;;;;;;;;5051401;28;20476;-95
2021/05/07 13:16:48;;;;;;;7.23;3.00;;;;;;;;;;5048856;28;20434;-96
2021/05/07 13:19:17;;;;;;;3.77;2.83;;;;;;;;;;5050032;28;20553;-96
2021/05/07 13:25:09;;;;;;;4.50;2.50;;;;;;;;;;5053811;28;20454;-96
2021/05/07 13:30:26;;;;;;;4.90;2.70;;;;;;;;;;5111621;22;20490;-96
2021/05/07 13:35:36;;;;;;;5.53;3.20;;;;;;;;;;5043909;28;20496;-95
2021/05/07 13:38:03;;;;;;;6.20;3.10;;;;;;;;;;5050071;28;20435;-96
2021/05/07 13:40:30;;;;;;;3.43;2.73;;;;;;;;;;5047297;28;20455;-96
2021/05/07 13:43:02;;;;;;;4.40;2.73;;;;;;;;;;5047521;28;20930;-96
2021/05/07 13:45:37;;;;;;;6.90;3.60;;;;;;;;;;5086465;23;20583;-96
2021/05/07 13:48:06;;;;;;;4.43;3.00;;;;;;;;;;5026826;28;20450;-95
2021/05/07 13:50:32;;;;;;;4.00;2.97;;;;;;;;;;5097784;23;20532;-93
2021/05/07 13:53:09;;;;;;;7.70;3.10;;;;;;;;;;5065407;28;20446;-96
2021/05/07 13:55:39;;;;;;;5.53;2.90;;;;;;;;;;5063981;28;20504;-96
2021/05/07 13:58:05;;;;;;;8.30;2.67;;;;;;;;;;5047879;28;20462;-95
2021/05/07 14:00:31;;;;;;;3.97;2.70;;;;;;;;;;5051771;28;20466;-94
2021/05/07 14:02:58;;;;;;;5.70;2.37;;;;;;;;;;5063909;28;20450;-95
2021/05/07 14:05:30;;;;;;;3.70;2.80;;;;;;;;;;5055219;28;20459;-94
2021/05/07 14:07:56;;;;;;;6.93;2.70;;;;;;;;;;5054776;28;20450;-94
2021/05/07 14:10:24;;;;;;;4.63;3.03;;;;;;;;;;5053527;28;20458;-95
2021/05/07 14:12:51;;;;;;;6.27;2.57;;;;;;;;;;5058541;28;20442;-95
2021/05/07 14:15:18;;;;;;;4.43;2.40;;;;;;;;;;5063983;28;20494;-94
2021/05/07 14:17:45;;;;;;;4.00;3.00;;;;;;;;;;5094987;23;20526;-95
2021/05/07 14:20:13;;;;;;;3.37;2.27;;;;;;;;;;5041570;28;20543;-94
2021/05/07 14:22:39;;;;;;;6.30;2.60;;;;;;;;;;5043870;28;20443;-96
2021/05/07 14:25:13;;;;;;;4.17;2.33;;;;;;;;;;5047333;28;20431;-96
2021/05/07 14:27:39;;;;;;;7.43;3.17;;;;;;;;;;5046655;28;20447;-94
2021/05/07 14:30:07;;;;;;;6.70;2.73;;;;;;;;;;5044767;28;20484;-96
2021/05/07 14:32:36;;;;;;;4.90;2.77;;;;;;;;;;5044341;28;20550;-96
2021/05/07 14:35:02;;;;;;;8.77;2.70;;;;;;;;;;5043936;28;20498;-96
2021/05/07 14:37:35;;;;;;;4.73;2.77;;;;;;;;;;5044361;28;20457;-96
2021/05/07 14:40:01;;;;;;;2.50;2.30;;;;;;;;;;5038618;28;20477;-96
2021/05/07 14:42:28;;;;;;;3.93;2.53;;;;;;;;;;5046997;28;20451;-96
2021/05/07 14:44:54;;;;;;;2.93;2.30;;;;;;;;;;5045800;28;20450;-93
2021/05/07 14:47:21;;;;;;;7.37;2.83;;;;;;;;;;5048557;28;20463;-97
2021/05/07 14:49:47;;;;;;;4.60;2.07;;;;;;;;;;5049624;28;20462;-96
2021/05/07 14:52:13;;;;;;;5.97;3.10;;;;;;;;;;5048777;28;20463;-96
2021/05/07 14:57:22;;;;;;;5.63;2.43;;;;;;;;;;5045004;28;20462;-96
2021/05/07 14:59:55;;;;;;;4.10;2.53;;;;;;;;;;5048181;28;20424;-94
2021/05/07 15:02:27;;;;;;;6.47;2.63;;;;;;;;;;5050868;28;20455;-96
2021/05/07 15:04:53;;;;;;;5.03;2.63;;;;;;;;;;5051640;28;20443;-96
2021/05/07 15:07:21;;;;;;;3.53;2.40;;;;;;;;;;5018753;28;20462;-96
2021/05/07 15:09:47;;;;;;;4.90;2.60;;;;;;;;;;5055751;28;20467;-96
2021/05/07 15:12:14;;;;;;;3.43;2.93;;;;;;;;;;5092084;22;20505;-96
2021/05/07 15:17:18;;;;;;;4.97;2.57;;;;;;;;;;5027867;28;20484;-96
2021/05/07 15:19:50;;;;;;;3.57;2.37;;;;;;;;;;5009574;28;20454;-96
2021/05/07 15:22:16;;;;;;;4.00;2.63;;;;;;;;;;5030730;28;20495;-96
2021/05/07 15:24:42;;;;;;;6.00;2.50;;;;;;;;;;5046955;23;20489;-96
2021/05/07 15:32:45;;;;;;;5.50;2.47;;;;;;;;;;5051337;28;20443;-96
2021/05/07 15:35:14;;;;;;;3.87;2.57;;;;;;;;;;5046029;28;20470;-96
2021/05/07 15:37:42;;;;;;;4.20;2.83;;;;;;;;;;5053170;28;20431;-96
2021/05/07 15:40:11;;;;;;;6.83;2.90;;;;;;;;;;5054009;28;20525;-96
2021/05/07 15:42:38;;;;;;;4.10;2.50;;;;;;;;;;5062854;23;20493;-96
2021/05/07 15:47:39;;;;;;;2.97;2.67;;;;;;;;;;5055339;23;21240;-96
2021/05/07 15:50:10;;;;;;;4.97;2.80;;;;;;;;;;5056316;28;20441;-96
2021/05/07 15:52:38;;;;;;;6.27;3.00;;;;;;;;;;5071307;28;20451;-95
2021/05/07 15:55:05;;;;;;;9.40;2.80;;;;;;;;;;5059941;28;20572;-96
2021/05/07 15:57:31;;;;;;;9.53;3.20;;;;;;;;;;5079748;23;20493;-96
2021/05/07 15:59:57;;;;;;;3.03;2.73;;;;;;;;;;5162062;22;20449;-93
2021/05/07 16:02:24;;;;;;;7.43;2.87;;;;;;;;;;5037948;28;20478;-96
2021/05/07 16:04:50;;;;;;;7.10;2.73;;;;;;;;;;5054942;28;20444;-96
2021/05/07 16:07:16;;;;;;;4.50;2.67;;;;;;;;;;5054678;28;20430;-96
2021/05/07 16:09:44;;;;;;;4.27;2.47;;;;;;;;;;5035552;28;20459;-96
2021/05/07 16:12:11;;;;;;;4.60;3.00;;;;;;;;;;5075582;23;20517;-96
2021/05/07 16:17:04;;;;;;;3.10;2.57;;;;;;;;;;5147171;22;20523;-96
2021/05/07 16:19:31;;;;;;;4.13;2.90;;;;;;;;;;5037258;28;20495;-96
2021/05/07 16:21:57;;;;;;;4.43;3.03;;;;;;;;;;5033013;28;20534;-94
2021/05/07 16:24:24;;;;;;;2.97;2.67;;;;;;;;;;5033975;28;20481;-96
2021/05/07 16:26:51;;;;;;;5.90;2.90;;;;;;;;;;5057690;23;20494;-95
2021/05/07 16:29:17;;;;;;;3.27;2.60;;;;;;;;;;5050692;28;20439;-96
2021/05/07 16:31:44;;;;;;;3.90;2.97;;;;;;;;;;5049138;28;20449;-96
2021/05/07 16:34:18;;;;;;;3.90;2.90;;;;;;;;;;5153804;22;20495;-96
2021/05/07 16:36:46;;;;;;;4.90;3.07;;;;;;;;;;5051528;28;20441;-96
2021/05/07 16:39:18;;;;;;;3.57;2.80;;;;;;;;;;5054894;28;20442;-96
2021/05/07 16:41:50;;;;;;;3.33;3.10;;;;;;;;;;5052582;28;20430;-96
2021/05/07 16:44:29;;;;;;;5.90;3.17;;;;;;;;;;5052802;28;20452;-96
2021/05/07 16:46:58;;;;;;;4.50;2.77;;;;;;;;;;5151470;22;20480;-95
2021/05/07 16:49:29;;;;;;;4.17;2.90;;;;;;;;;;5286231;22;20505;-96
2021/05/07 16:52:10;;;;;;;4.30;2.90;;;;;;;;;;5068186;28;20422;-96
2021/05/07 16:54:37;;;;;;;3.10;2.50;;;;;;;;;;5112152;22;20487;-94
2021/05/07 16:57:03;;;;;;;3.10;2.80;;;;;;;;;;5073265;23;20460;-96
2021/05/07 16:59:39;;;;;;;6.67;3.00;;;;;;;;;;5048370;28;20454;-96
2021/05/07 17:02:13;;;;;;;7.77;3.50;;;;;;;;;;5053573;28;20445;-96
2021/05/07 17:05:08;;;;;;;3.73;2.87;;;;;;;;;;5058667;23;20485;-96
2021/05/07 17:08:09;;;;;;;3.80;2.97;;;;;;;;;;5087790;23;20506;-96
2021/05/07 17:10:35;;;;;;;5.63;3.10;;;;;;;;;;5057483;28;20431;-96
2021/05/07 17:13:21;;;;;;;10.30;3.47;;;;;;;;;;5058192;28;20435;-96
2021/05/07 17:18:33;;;;;;;4.47;2.70;;;;;;;;;;5123014;23;20453;-95
2021/05/07 17:21:06;;;;;;;10.57;3.00;;;;;;;;;;5115750;23;20523;-96
2021/05/07 17:23:59;;;;;;;6.73;3.00;;;;;;;;;;5060061;23;20486;-96
2021/05/07 17:29:25;;;;;;;7.33;3.47;;;;;;;;;;5297416;22;20474;-96
2021/05/07 17:34:30;;;;;;;5.70;2.97;;;;;;;;;;5122441;23;20474;-96
2021/05/07 17:42:10;;;;;;;6.07;3.03;;;;;;;;;;5292621;22;20490;-96
2021/05/07 17:47:46;;;;;;;4.33;3.00;;;;;;;;;;5094983;22;20498;-96
2021/05/07 17:50:15;;;;;;;5.97;4.00;;;;;;;;;;5066010;23;20482;-96
2021/05/07 17:52:42;;;;;;;4.40;3.10;;;;;;;;;;5143973;22;20494;-96
2021/05/07 17:58:11;;;;;;;5.80;3.10;;;;;;;;;;5055219;28;20414;-96
2021/05/07 18:08:41;;;;;;;4.93;3.50;;;;;;;;;;4136184;22;20471;-96
2021/05/07 18:11:09;;;;;;;5.10;3.50;;;;;;;;;;5052378;28;20451;-96
2021/05/07 18:13:43;;;;;;;5.83;2.93;;;;;;;;;;5061396;28;20435;-94
2021/05/07 18:24:47;;;;;;;5.10;2.80;;;;;;;;;;5031785;28;20451;-96
2021/05/07 19:28:44;;;;;;;5.50;4.20;;;;;;;;;;5047493;23;20476;-96
2021/05/07 19:34:25;;;;;;;6.43;3.77;;;;;;;;;;5906713;23;20481;-95
2021/05/07 20:28:29;;;;;;;4.20;3.40;;;;;;;;;;5006059;28;20489;-96
2021/05/07 20:30:55;;;;;;;8.57;3.80;;;;;;;;;;5002609;28;20463;-95
2021/05/07 20:41:35;;;;;;;8.17;4.00;;;;;;;;;;5104242;22;20481;-96
2021/05/07 20:44:03;;;;;;;9.00;3.73;;;;;;;;;;5050050;28;20448;-96
2021/05/07 20:54:55;;;;;;;3.73;3.43;;;;;;;;;;5455443;22;20549;-96
2021/05/07 20:57:22;;;;;;;7.33;3.80;;;;;;;;;;5043856;28;20433;-96
2021/05/07 21:08:21;;;;;;;9.53;4.00;;;;;;;;;;5030309;28;20486;-96
2021/05/07 21:13:44;;;;;;;5.20;3.80;;;;;;;;;;5008487;28;20484;-96
2021/05/07 21:16:26;;;;;;;3.80;3.30;;;;;;;;;;5348440;22;21980;-96
2021/05/07 21:18:54;;;;;;;5.63;3.70;;;;;;;;;;5041599;23;20499;-96
2021/05/07 21:24:11;;;;;;;5.70;4.07;;;;;;;;;;5756760;23;20483;-96
2021/05/07 21:26:37;;;;;;;6.40;3.80;;;;;;;;;;5027983;28;20493;-96
2021/05/07 21:32:17;;;;;;;7.13;4.17;;;;;;;;;;5012395;28;20428;-96
2021/05/07 21:34:47;;;;;;;4.20;3.80;;;;;;;;;;5024791;28;20532;-96
2021/05/07 21:56:02;;;;;;;4.27;3.50;;;;;;;;;;4963421;23;20477;-96
2021/05/07 22:02:13;;;;;;;5.03;3.60;;;;;;;;;;4987099;28;20450;-96
2021/05/07 22:04:40;;;;;;;5.17;3.90;;;;;;;;;;5022522;23;20578;-96
2021/05/07 22:23:15;;;;;;;6.23;3.50;;;;;;;;;;5405834;23;20769;-96
2021/05/07 22:41:14;;;;;;;6.97;3.97;;;;;;;;;;5136118;23;20523;-96
2021/05/07 22:46:37;;;;;;;3.60;3.30;;;;;;;;;;5845075;23;20498;-96
2021/05/07 23:15:06;;;;;;;4.00;3.60;;;;;;;;;;5542396;23;20486;-96
2021/05/07 23:17:32;;;;;;;5.50;4.00;;;;;;;;;;5029885;28;20490;-96
2021/05/07 23:20:01;;;;;;;5.87;4.30;;;;;;;;;;5011779;28;20472;-96
2021/05/07 23:25:41;;;;;;;5.73;4.10;;;;;;;;;;4998912;28;20519;-96
2021/05/07 23:29:02;;;;;;;5.90;4.07;;;;;;;;;;5038780;28;20435;-96
2021/05/07 23:44:22;;;;;;;4.50;3.97;;;;;;;;;;5370080;23;20457;-96
2021/05/07 23:49:44;;;;;;;5.10;4.50;;;;;;;;;;5180232;23;20575;-96
2021/05/07 23:52:25;;;;;;;4.60;3.90;;;;;;;;;;5014221;28;20461;-96
2021/05/07 23:57:58;;;;;;;6.20;3.87;;;;;;;;;;4981652;28;20467;-96
